sensor_id;sensor_type;location;lat;lon;timestamp;temperature;humidity
51619;DHT22;38518;53.164;5.430;2022-10-16T00:01:59;12.60;99.90
51619;DHT22;38518;53.164;5.430;2022-10-16T00:04:25;12.60;99.90
51619;DHT22;38518;53.164;5.430;2022-10-16T00:06:51;12.50;99.90
51619;DHT22;38518;53.164;5.430;2022-10-16T00:09:17;12.70;99.90
51619;DHT22;38518;53.164;5.430;2022-10-16T00:11:43;12.70;99.90
51619;DHT22;38518;53.164;5.430;2022-10-16T00:14:14;12.60;99.90
51619;DHT22;38518;53.164;5.430;2022-10-16T00:16:40;12.60;99.90
51619;DHT22;38518;53.164;5.430;2022-10-16T00:19:07;12.60;99.90
51619;DHT22;38518;53.164;5.430;2022-10-16T00:21:33;12.60;99.90
51619;DHT22;38518;53.164;5.430;2022-10-16T00:24:04;12.80;99.90
51619;DHT22;38518;53.164;5.430;2022-10-16T00:26:32;12.50;99.90
51619;DHT22;38518;53.164;5.430;2022-10-16T00:28:59;12.70;99.90
51619;DHT22;38518;53.164;5.430;2022-10-16T00:31:25;12.50;99.90
51619;DHT22;38518;53.164;5.430;2022-10-16T00:33:51;12.50;99.90
51619;DHT22;38518;53.164;5.430;2022-10-16T00:36:20;12.50;99.90
51619;DHT22;38518;53.164;5.430;2022-10-16T00:38:46;12.50;99.90
51619;DHT22;38518;53.164;5.430;2022-10-16T00:41:15;12.40;99.90
51619;DHT22;38518;53.164;5.430;2022-10-16T00:43:54;13.40;99.90
51619;DHT22;38518;53.164;5.430;2022-10-16T00:49:14;12.50;99.90
51619;DHT22;38518;53.164;5.430;2022-10-16T00:51:45;12.50;99.90
51619;DHT22;38518;53.164;5.430;2022-10-16T00:54:18;12.50;99.90
51619;DHT22;38518;53.164;5.430;2022-10-16T00:56:46;12.50;99.90
51619;DHT22;38518;53.164;5.430;2022-10-16T00:59:20;12.50;99.90
51619;DHT22;38518;53.164;5.430;2022-10-16T01:01:46;12.50;99.90
51619;DHT22;38518;53.164;5.430;2022-10-16T01:04:12;12.60;99.90
51619;DHT22;38518;53.164;5.430;2022-10-16T01:12:22;12.70;99.90
51619;DHT22;38518;53.164;5.430;2022-10-16T01:15:38;12.70;99.90
51619;DHT22;38518;53.164;5.430;2022-10-16T01:17:48;12.70;99.90
51619;DHT22;38518;53.164;5.430;2022-10-16T01:20:29;12.70;99.90
51619;DHT22;38518;53.164;5.430;2022-10-16T01:24:38;12.80;99.90
51619;DHT22;38518;53.164;5.430;2022-10-16T01:29:11;12.80;99.90
51619;DHT22;38518;53.164;5.430;2022-10-16T01:31:44;12.80;99.90
51619;DHT22;38518;53.164;5.430;2022-10-16T01:34:27;12.80;99.90
51619;DHT22;38518;53.164;5.430;2022-10-16T01:37:05;12.90;99.90
51619;DHT22;38518;53.164;5.430;2022-10-16T01:39:35;12.90;99.90
51619;DHT22;38518;53.164;5.430;2022-10-16T01:42:19;12.80;99.90
51619;DHT22;38518;53.164;5.430;2022-10-16T01:44:47;12.80;99.90
51619;DHT22;38518;53.164;5.430;2022-10-16T01:47:14;12.90;99.90
51619;DHT22;38518;53.164;5.430;2022-10-16T01:49:41;13.10;99.90
51619;DHT22;38518;53.164;5.430;2022-10-16T01:52:12;12.90;99.90
51619;DHT22;38518;53.164;5.430;2022-10-16T01:54:41;12.80;1.00
51619;DHT22;38518;53.164;5.430;2022-10-16T01:57:08;12.80;1.00
51619;DHT22;38518;53.164;5.430;2022-10-16T01:59:40;12.70;1.00
51619;DHT22;38518;53.164;5.430;2022-10-16T02:02:10;12.60;1.00
51619;DHT22;38518;53.164;5.430;2022-10-16T02:04:47;12.60;1.00
51619;DHT22;38518;53.164;5.430;2022-10-16T02:07:15;12.50;14.90
51619;DHT22;38518;53.164;5.430;2022-10-16T02:09:42;12.50;1.00
51619;DHT22;38518;53.164;5.430;2022-10-16T02:12:14;12.40;44.00
51619;DHT22;38518;53.164;5.430;2022-10-16T02:14:41;12.40;57.90
51619;DHT22;38518;53.164;5.430;2022-10-16T02:17:16;12.40;86.30
51619;DHT22;38518;53.164;5.430;2022-10-16T02:19:44;12.30;95.00
51619;DHT22;38518;53.164;5.430;2022-10-16T02:22:16;12.30;93.70
51619;DHT22;38518;53.164;5.430;2022-10-16T02:24:54;12.30;99.90
51619;DHT22;38518;53.164;5.430;2022-10-16T02:30:02;12.20;99.90
51619;DHT22;38518;53.164;5.430;2022-10-16T02:32:34;12.20;99.90
51619;DHT22;38518;53.164;5.430;2022-10-16T02:35:00;12.10;99.90
51619;DHT22;38518;53.164;5.430;2022-10-16T02:37:27;12.10;99.90
51619;DHT22;38518;53.164;5.430;2022-10-16T02:39:55;12.10;99.90
51619;DHT22;38518;53.164;5.430;2022-10-16T02:42:24;12.00;99.90
51619;DHT22;38518;53.164;5.430;2022-10-16T02:44:52;12.00;99.90
51619;DHT22;38518;53.164;5.430;2022-10-16T02:47:18;12.10;99.90
51619;DHT22;38518;53.164;5.430;2022-10-16T02:49:43;12.10;99.90
51619;DHT22;38518;53.164;5.430;2022-10-16T02:52:09;12.10;99.90
51619;DHT22;38518;53.164;5.430;2022-10-16T02:54:35;12.10;99.90
51619;DHT22;38518;53.164;5.430;2022-10-16T02:57:00;12.10;99.90
51619;DHT22;38518;53.164;5.430;2022-10-16T02:59:26;11.50;99.90
51619;DHT22;38518;53.164;5.430;2022-10-16T03:01:52;12.00;99.90
51619;DHT22;38518;53.164;5.430;2022-10-16T03:04:18;12.10;99.90
51619;DHT22;38518;53.164;5.430;2022-10-16T03:06:43;12.00;99.90
51619;DHT22;38518;53.164;5.430;2022-10-16T03:09:09;12.00;99.90
51619;DHT22;38518;53.164;5.430;2022-10-16T03:11:35;12.10;99.90
51619;DHT22;38518;53.164;5.430;2022-10-16T03:14:00;12.10;99.90
51619;DHT22;38518;53.164;5.430;2022-10-16T03:16:26;12.10;99.90
51619;DHT22;38518;53.164;5.430;2022-10-16T03:18:52;12.10;99.90
51619;DHT22;38518;53.164;5.430;2022-10-16T03:21:17;12.10;99.90
51619;DHT22;38518;53.164;5.430;2022-10-16T03:23:43;12.10;99.90
51619;DHT22;38518;53.164;5.430;2022-10-16T03:26:09;12.10;99.90
51619;DHT22;38518;53.164;5.430;2022-10-16T03:28:34;12.00;99.90
51619;DHT22;38518;53.164;5.430;2022-10-16T03:31:00;12.00;99.90
51619;DHT22;38518;53.164;5.430;2022-10-16T03:33:26;12.00;99.90
51619;DHT22;38518;53.164;5.430;2022-10-16T03:35:55;11.90;99.90
51619;DHT22;38518;53.164;5.430;2022-10-16T03:38:21;11.90;99.90
51619;DHT22;38518;53.164;5.430;2022-10-16T03:40:47;11.90;99.90
51619;DHT22;38518;53.164;5.430;2022-10-16T03:43:13;11.90;99.90
51619;DHT22;38518;53.164;5.430;2022-10-16T03:45:38;11.90;99.90
51619;DHT22;38518;53.164;5.430;2022-10-16T03:48:05;12.00;99.90
51619;DHT22;38518;53.164;5.430;2022-10-16T03:50:31;12.00;99.90
51619;DHT22;38518;53.164;5.430;2022-10-16T03:52:57;12.10;99.90
51619;DHT22;38518;53.164;5.430;2022-10-16T03:55:23;12.10;99.90
51619;DHT22;38518;53.164;5.430;2022-10-16T03:57:48;12.10;99.90
51619;DHT22;38518;53.164;5.430;2022-10-16T04:00:14;12.10;99.90
51619;DHT22;38518;53.164;5.430;2022-10-16T04:02:40;12.20;99.90
51619;DHT22;38518;53.164;5.430;2022-10-16T04:05:06;12.20;99.90
51619;DHT22;38518;53.164;5.430;2022-10-16T04:07:32;12.20;99.90
51619;DHT22;38518;53.164;5.430;2022-10-16T04:09:58;12.20;99.90
51619;DHT22;38518;53.164;5.430;2022-10-16T04:12:25;12.20;99.90
51619;DHT22;38518;53.164;5.430;2022-10-16T04:14:51;12.30;99.90
51619;DHT22;38518;53.164;5.430;2022-10-16T04:17:17;12.30;99.90
51619;DHT22;38518;53.164;5.430;2022-10-16T04:19:42;12.20;99.90
51619;DHT22;38518;53.164;5.430;2022-10-16T04:22:08;12.20;99.90
51619;DHT22;38518;53.164;5.430;2022-10-16T04:24:34;12.20;99.90
51619;DHT22;38518;53.164;5.430;2022-10-16T04:27:00;12.20;99.90
51619;DHT22;38518;53.164;5.430;2022-10-16T04:29:26;12.20;99.90
51619;DHT22;38518;53.164;5.430;2022-10-16T04:31:51;12.20;99.90
51619;DHT22;38518;53.164;5.430;2022-10-16T04:34:17;12.20;99.90
51619;DHT22;38518;53.164;5.430;2022-10-16T04:36:43;12.10;99.90
51619;DHT22;38518;53.164;5.430;2022-10-16T04:39:09;12.10;99.90
51619;DHT22;38518;53.164;5.430;2022-10-16T04:41:34;12.10;99.90
51619;DHT22;38518;53.164;5.430;2022-10-16T04:44:00;12.10;99.90
51619;DHT22;38518;53.164;5.430;2022-10-16T04:46:26;12.10;99.90
51619;DHT22;38518;53.164;5.430;2022-10-16T04:48:51;12.10;99.90
51619;DHT22;38518;53.164;5.430;2022-10-16T04:51:17;12.10;99.90
51619;DHT22;38518;53.164;5.430;2022-10-16T04:53:44;12.20;99.90
51619;DHT22;38518;53.164;5.430;2022-10-16T04:56:09;12.20;99.90
51619;DHT22;38518;53.164;5.430;2022-10-16T04:58:35;12.20;99.90
51619;DHT22;38518;53.164;5.430;2022-10-16T05:01:01;12.30;99.90
51619;DHT22;38518;53.164;5.430;2022-10-16T05:03:27;12.30;99.90
51619;DHT22;38518;53.164;5.430;2022-10-16T05:05:52;12.30;99.90
51619;DHT22;38518;53.164;5.430;2022-10-16T05:08:18;12.30;99.90
51619;DHT22;38518;53.164;5.430;2022-10-16T05:10:44;12.40;99.90
51619;DHT22;38518;53.164;5.430;2022-10-16T05:13:10;12.30;99.90
51619;DHT22;38518;53.164;5.430;2022-10-16T05:15:36;12.40;99.90
51619;DHT22;38518;53.164;5.430;2022-10-16T05:18:02;12.40;99.90
51619;DHT22;38518;53.164;5.430;2022-10-16T05:20:28;12.30;92.60
51619;DHT22;38518;53.164;5.430;2022-10-16T05:22:54;12.30;91.90
51619;DHT22;38518;53.164;5.430;2022-10-16T05:25:20;12.20;84.00
51619;DHT22;38518;53.164;5.430;2022-10-16T05:27:49;12.20;95.10
51619;DHT22;38518;53.164;5.430;2022-10-16T05:30:16;12.20;82.40
51619;DHT22;38518;53.164;5.430;2022-10-16T05:32:47;12.10;91.70
51619;DHT22;38518;53.164;5.430;2022-10-16T05:35:13;12.10;85.20
51619;DHT22;38518;53.164;5.430;2022-10-16T05:37:38;12.10;93.60
51619;DHT22;38518;53.164;5.430;2022-10-16T05:40:05;12.10;97.10
51619;DHT22;38518;53.164;5.430;2022-10-16T05:42:30;12.10;99.90
51619;DHT22;38518;53.164;5.430;2022-10-16T05:44:56;12.10;99.90
51619;DHT22;38518;53.164;5.430;2022-10-16T05:47:22;12.00;99.90
51619;DHT22;38518;53.164;5.430;2022-10-16T05:49:48;12.00;99.90
51619;DHT22;38518;53.164;5.430;2022-10-16T05:52:13;12.00;99.90
51619;DHT22;38518;53.164;5.430;2022-10-16T05:54:39;12.00;99.90
51619;DHT22;38518;53.164;5.430;2022-10-16T05:57:05;12.00;99.90
51619;DHT22;38518;53.164;5.430;2022-10-16T05:59:31;12.00;99.90
51619;DHT22;38518;53.164;5.430;2022-10-16T06:01:57;12.00;99.90
51619;DHT22;38518;53.164;5.430;2022-10-16T06:04:23;12.10;99.90
51619;DHT22;38518;53.164;5.430;2022-10-16T06:06:48;12.00;99.90
51619;DHT22;38518;53.164;5.430;2022-10-16T06:09:14;12.00;99.90
51619;DHT22;38518;53.164;5.430;2022-10-16T06:11:40;11.90;99.90
51619;DHT22;38518;53.164;5.430;2022-10-16T06:14:06;11.90;99.90
51619;DHT22;38518;53.164;5.430;2022-10-16T06:16:36;12.50;99.90
51619;DHT22;38518;53.164;5.430;2022-10-16T06:19:03;11.90;99.90
51619;DHT22;38518;53.164;5.430;2022-10-16T06:21:31;11.90;99.90
51619;DHT22;38518;53.164;5.430;2022-10-16T06:23:58;11.90;99.90
51619;DHT22;38518;53.164;5.430;2022-10-16T06:26:28;11.90;99.90
51619;DHT22;38518;53.164;5.430;2022-10-16T06:28:56;11.90;99.90
51619;DHT22;38518;53.164;5.430;2022-10-16T06:31:22;11.80;99.90
51619;DHT22;38518;53.164;5.430;2022-10-16T06:33:53;11.90;99.90
51619;DHT22;38518;53.164;5.430;2022-10-16T06:36:19;11.90;99.90
51619;DHT22;38518;53.164;5.430;2022-10-16T06:38:45;11.90;99.90
51619;DHT22;38518;53.164;5.430;2022-10-16T06:41:16;12.00;99.90
51619;DHT22;38518;53.164;5.430;2022-10-16T06:43:42;12.00;99.90
51619;DHT22;38518;53.164;5.430;2022-10-16T06:46:10;12.10;99.90
51619;DHT22;38518;53.164;5.430;2022-10-16T06:48:37;12.20;99.90
51619;DHT22;38518;53.164;5.430;2022-10-16T06:53:35;12.20;99.90
51619;DHT22;38518;53.164;5.430;2022-10-16T06:56:12;12.30;99.90
51619;DHT22;38518;53.164;5.430;2022-10-16T06:58:38;12.30;99.90
51619;DHT22;38518;53.164;5.430;2022-10-16T07:01:05;12.30;99.90
51619;DHT22;38518;53.164;5.430;2022-10-16T07:03:31;12.40;99.90
51619;DHT22;38518;53.164;5.430;2022-10-16T07:06:00;12.40;99.90
51619;DHT22;38518;53.164;5.430;2022-10-16T07:08:26;12.60;99.90
51619;DHT22;38518;53.164;5.430;2022-10-16T07:11:03;12.90;99.90
51619;DHT22;38518;53.164;5.430;2022-10-16T07:13:29;13.10;99.90
51619;DHT22;38518;53.164;5.430;2022-10-16T07:15:55;13.10;99.90
51619;DHT22;38518;53.164;5.430;2022-10-16T07:18:20;13.10;99.90
51619;DHT22;38518;53.164;5.430;2022-10-16T07:20:47;13.10;99.90
51619;DHT22;38518;53.164;5.430;2022-10-16T07:23:12;13.10;99.90
51619;DHT22;38518;53.164;5.430;2022-10-16T07:25:38;13.10;99.90
51619;DHT22;38518;53.164;5.430;2022-10-16T07:28:04;13.10;99.90
51619;DHT22;38518;53.164;5.430;2022-10-16T07:30:30;13.10;99.90
51619;DHT22;38518;53.164;5.430;2022-10-16T07:32:55;13.10;87.50
51619;DHT22;38518;53.164;5.430;2022-10-16T07:35:21;13.10;74.90
51619;DHT22;38518;53.164;5.430;2022-10-16T07:37:47;13.10;61.20
51619;DHT22;38518;53.164;5.430;2022-10-16T07:40:12;13.10;47.80
51619;DHT22;38518;53.164;5.430;2022-10-16T07:42:38;13.10;37.60
51619;DHT22;38518;53.164;5.430;2022-10-16T07:45:04;13.00;10.90
51619;DHT22;38518;53.164;5.430;2022-10-16T07:47:30;13.00;1.00
51619;DHT22;38518;53.164;5.430;2022-10-16T07:49:56;13.00;63.90
51619;DHT22;38518;53.164;5.430;2022-10-16T07:52:21;13.00;47.10
51619;DHT22;38518;53.164;5.430;2022-10-16T07:54:47;13.10;98.10
51619;DHT22;38518;53.164;5.430;2022-10-16T07:57:13;13.10;99.90
51619;DHT22;38518;53.164;5.430;2022-10-16T07:59:45;13.10;99.90
51619;DHT22;38518;53.164;5.430;2022-10-16T08:02:11;13.20;99.90
51619;DHT22;38518;53.164;5.430;2022-10-16T08:04:37;13.30;99.90
51619;DHT22;38518;53.164;5.430;2022-10-16T08:07:03;13.40;99.90
51619;DHT22;38518;53.164;5.430;2022-10-16T08:09:29;13.40;81.20
51619;DHT22;38518;53.164;5.430;2022-10-16T08:11:55;13.40;81.40
51619;DHT22;38518;53.164;5.430;2022-10-16T08:14:20;13.50;52.90
51619;DHT22;38518;53.164;5.430;2022-10-16T08:16:46;13.50;1.00
51619;DHT22;38518;53.164;5.430;2022-10-16T08:19:12;13.60;1.00
51619;DHT22;38518;53.164;5.430;2022-10-16T08:21:38;13.60;1.00
51619;DHT22;38518;53.164;5.430;2022-10-16T08:24:03;13.70;1.00
51619;DHT22;38518;53.164;5.430;2022-10-16T08:26:29;13.60;1.00
51619;DHT22;38518;53.164;5.430;2022-10-16T08:28:55;13.70;1.00
51619;DHT22;38518;53.164;5.430;2022-10-16T08:31:22;14.00;18.10
51619;DHT22;38518;53.164;5.430;2022-10-16T08:33:48;14.30;1.00
51619;DHT22;38518;53.164;5.430;2022-10-16T08:36:15;14.70;1.00
51619;DHT22;38518;53.164;5.430;2022-10-16T08:38:41;15.00;99.90
51619;DHT22;38518;53.164;5.430;2022-10-16T08:44:14;15.80;99.90
51619;DHT22;38518;53.164;5.430;2022-10-16T08:49:33;16.90;1.00
51619;DHT22;38518;53.164;5.430;2022-10-16T08:51:59;17.00;1.00
51619;DHT22;38518;53.164;5.430;2022-10-16T08:57:16;16.90;1.00
51619;DHT22;38518;53.164;5.430;2022-10-16T08:59:43;17.00;1.00
51619;DHT22;38518;53.164;5.430;2022-10-16T09:02:37;17.10;1.00
51619;DHT22;38518;53.164;5.430;2022-10-16T09:08:26;17.20;99.90
51619;DHT22;38518;53.164;5.430;2022-10-16T09:13:54;16.70;99.90
51619;DHT22;38518;53.164;5.430;2022-10-16T09:17:00;16.50;99.90
51619;DHT22;38518;53.164;5.430;2022-10-16T09:19:38;16.40;99.90
51619;DHT22;38518;53.164;5.430;2022-10-16T09:22:15;16.30;99.90
51619;DHT22;38518;53.164;5.430;2022-10-16T09:24:41;16.30;99.90
51619;DHT22;38518;53.164;5.430;2022-10-16T09:27:13;16.20;99.90
51619;DHT22;38518;53.164;5.430;2022-10-16T09:29:39;16.30;99.90
51619;DHT22;38518;53.164;5.430;2022-10-16T09:32:18;16.30;99.90
51619;DHT22;38518;53.164;5.430;2022-10-16T09:34:54;16.80;99.90
51619;DHT22;38518;53.164;5.430;2022-10-16T09:37:23;17.50;99.90
51619;DHT22;38518;53.164;5.430;2022-10-16T09:39:51;18.10;99.90
51619;DHT22;38518;53.164;5.430;2022-10-16T09:42:31;18.80;99.90
51619;DHT22;38518;53.164;5.430;2022-10-16T09:44:57;19.40;92.80
51619;DHT22;38518;53.164;5.430;2022-10-16T09:47:29;19.70;60.20
51619;DHT22;38518;53.164;5.430;2022-10-16T09:50:01;20.10;82.90
51619;DHT22;38518;53.164;5.430;2022-10-16T09:52:31;20.50;38.70
51619;DHT22;38518;53.164;5.430;2022-10-16T09:55:12;21.00;67.70
51619;DHT22;38518;53.164;5.430;2022-10-16T09:57:52;21.50;14.20
51619;DHT22;38518;53.164;5.430;2022-10-16T10:00:18;21.90;11.90
51619;DHT22;38518;53.164;5.430;2022-10-16T10:02:45;22.10;4.10
51619;DHT22;38518;53.164;5.430;2022-10-16T10:07:45;22.00;1.00
51619;DHT22;38518;53.164;5.430;2022-10-16T10:10:23;22.30;9.30
51619;DHT22;38518;53.164;5.430;2022-10-16T10:12:50;22.40;1.00
51619;DHT22;38518;53.164;5.430;2022-10-16T10:15:16;22.40;1.00
51619;DHT22;38518;53.164;5.430;2022-10-16T10:17:53;22.70;1.00
51619;DHT22;38518;53.164;5.430;2022-10-16T10:20:29;23.10;1.00
51619;DHT22;38518;53.164;5.430;2022-10-16T10:22:56;23.20;1.00
51619;DHT22;38518;53.164;5.430;2022-10-16T10:33:23;23.90;1.00
51619;DHT22;38518;53.164;5.430;2022-10-16T10:36:09;24.10;1.00
51619;DHT22;38518;53.164;5.430;2022-10-16T10:38:54;24.30;1.00
51619;DHT22;38518;53.164;5.430;2022-10-16T10:47:11;24.80;1.00
51619;DHT22;38518;53.164;5.430;2022-10-16T10:52:17;24.80;1.00
51619;DHT22;38518;53.164;5.430;2022-10-16T11:03:58;25.00;1.00
51619;DHT22;38518;53.164;5.430;2022-10-16T11:06:08;25.20;1.00
51619;DHT22;38518;53.164;5.430;2022-10-16T11:11:37;25.40;1.00
51619;DHT22;38518;53.164;5.430;2022-10-16T11:14:17;25.10;1.00
51619;DHT22;38518;53.164;5.430;2022-10-16T11:22:06;25.20;1.00
51619;DHT22;38518;53.164;5.430;2022-10-16T11:24:53;25.50;1.00
51619;DHT22;38518;53.164;5.430;2022-10-16T11:27:33;25.70;1.00
51619;DHT22;38518;53.164;5.430;2022-10-16T11:30:03;25.90;1.00
51619;DHT22;38518;53.164;5.430;2022-10-16T11:35:26;26.00;1.00
51619;DHT22;38518;53.164;5.430;2022-10-16T11:37:56;26.30;1.00
51619;DHT22;38518;53.164;5.430;2022-10-16T11:40:32;26.40;1.00
51619;DHT22;38518;53.164;5.430;2022-10-16T11:43:12;26.40;1.00
51619;DHT22;38518;53.164;5.430;2022-10-16T11:45:48;26.40;1.00
51619;DHT22;38518;53.164;5.430;2022-10-16T11:56:21;26.80;1.00
51619;DHT22;38518;53.164;5.430;2022-10-16T11:59:03;26.50;1.00
51619;DHT22;38518;53.164;5.430;2022-10-16T12:04:06;26.40;1.00
51619;DHT22;38518;53.164;5.430;2022-10-16T12:06:50;26.50;1.00
51619;DHT22;38518;53.164;5.430;2022-10-16T12:09:31;26.40;1.00
51619;DHT22;38518;53.164;5.430;2022-10-16T12:11:57;26.60;1.00
51619;DHT22;38518;53.164;5.430;2022-10-16T12:17:04;26.50;1.00
51619;DHT22;38518;53.164;5.430;2022-10-16T12:22:50;26.70;1.00
51619;DHT22;38518;53.164;5.430;2022-10-16T12:25:33;26.80;1.00
51619;DHT22;38518;53.164;5.430;2022-10-16T12:30:42;27.00;1.00
51619;DHT22;38518;53.164;5.430;2022-10-16T12:33:56;27.30;1.00
51619;DHT22;38518;53.164;5.430;2022-10-16T12:36:33;27.10;1.00
51619;DHT22;38518;53.164;5.430;2022-10-16T12:39:00;26.90;1.00
51619;DHT22;38518;53.164;5.430;2022-10-16T12:41:31;26.50;1.00
51619;DHT22;38518;53.164;5.430;2022-10-16T12:43:59;26.10;1.00
51619;DHT22;38518;53.164;5.430;2022-10-16T12:49:37;25.00;1.00
51619;DHT22;38518;53.164;5.430;2022-10-16T12:52:04;24.70;1.00
51619;DHT22;38518;53.164;5.430;2022-10-16T12:54:37;24.30;1.00
51619;DHT22;38518;53.164;5.430;2022-10-16T13:05:35;24.20;1.00
51619;DHT22;38518;53.164;5.430;2022-10-16T13:08:28;23.80;1.00
51619;DHT22;38518;53.164;5.430;2022-10-16T13:16:48;22.40;1.00
51619;DHT22;38518;53.164;5.430;2022-10-16T13:27:17;22.30;1.00
51619;DHT22;38518;53.164;5.430;2022-10-16T13:29:54;22.50;1.00
51619;DHT22;38518;53.164;5.430;2022-10-16T13:32:26;22.30;1.00
51619;DHT22;38518;53.164;5.430;2022-10-16T13:34:52;22.30;1.00
51619;DHT22;38518;53.164;5.430;2022-10-16T13:37:21;22.50;1.00
51619;DHT22;38518;53.164;5.430;2022-10-16T13:39:48;22.60;1.00
51619;DHT22;38518;53.164;5.430;2022-10-16T13:42:26;22.80;1.00
51619;DHT22;38518;53.164;5.430;2022-10-16T13:44:53;23.10;1.00
51619;DHT22;38518;53.164;5.430;2022-10-16T13:47:25;23.20;1.00
51619;DHT22;38518;53.164;5.430;2022-10-16T13:52:29;23.60;1.00
51619;DHT22;38518;53.164;5.430;2022-10-16T13:54:58;23.50;1.00
51619;DHT22;38518;53.164;5.430;2022-10-16T13:57:24;23.40;1.00
51619;DHT22;38518;53.164;5.430;2022-10-16T13:59:51;23.60;1.00
51619;DHT22;38518;53.164;5.430;2022-10-16T14:02:30;24.00;1.00
51619;DHT22;38518;53.164;5.430;2022-10-16T14:04:57;24.40;1.00
51619;DHT22;38518;53.164;5.430;2022-10-16T14:07:29;24.90;1.00
51619;DHT22;38518;53.164;5.430;2022-10-16T14:10:02;25.40;1.00
51619;DHT22;38518;53.164;5.430;2022-10-16T14:12:28;25.90;1.00
51619;DHT22;38518;53.164;5.430;2022-10-16T14:14:55;26.20;1.00
51619;DHT22;38518;53.164;5.430;2022-10-16T14:17:25;26.10;1.00
51619;DHT22;38518;53.164;5.430;2022-10-16T14:19:54;25.60;1.00
51619;DHT22;38518;53.164;5.430;2022-10-16T14:22:32;25.40;1.00
51619;DHT22;38518;53.164;5.430;2022-10-16T14:24:58;25.00;1.00
51619;DHT22;38518;53.164;5.430;2022-10-16T14:27:33;24.80;1.00
51619;DHT22;38518;53.164;5.430;2022-10-16T14:32:34;24.70;1.00
51619;DHT22;38518;53.164;5.430;2022-10-16T14:35:00;24.50;1.00
51619;DHT22;38518;53.164;5.430;2022-10-16T14:37:28;24.20;1.00
51619;DHT22;38518;53.164;5.430;2022-10-16T14:39:55;23.70;1.00
51619;DHT22;38518;53.164;5.430;2022-10-16T14:42:23;23.00;1.00
51619;DHT22;38518;53.164;5.430;2022-10-16T14:44:54;22.30;1.00
51619;DHT22;38518;53.164;5.430;2022-10-16T14:47:23;21.40;1.00
51619;DHT22;38518;53.164;5.430;2022-10-16T14:49:54;20.70;1.00
51619;DHT22;38518;53.164;5.430;2022-10-16T14:52:21;20.20;1.00
51619;DHT22;38518;53.164;5.430;2022-10-16T14:54:51;19.80;1.00
51619;DHT22;38518;53.164;5.430;2022-10-16T14:57:23;19.60;1.00
51619;DHT22;38518;53.164;5.430;2022-10-16T14:59:49;19.20;1.00
51619;DHT22;38518;53.164;5.430;2022-10-16T15:04:48;18.80;1.00
51619;DHT22;38518;53.164;5.430;2022-10-16T15:07:13;18.60;1.00
51619;DHT22;38518;53.164;5.430;2022-10-16T15:09:39;18.50;1.00
51619;DHT22;38518;53.164;5.430;2022-10-16T15:12:05;18.20;1.00
51619;DHT22;38518;53.164;5.430;2022-10-16T15:14:31;18.00;1.00
51619;DHT22;38518;53.164;5.430;2022-10-16T15:16:57;17.90;1.00
51619;DHT22;38518;53.164;5.430;2022-10-16T15:19:23;17.80;1.00
51619;DHT22;38518;53.164;5.430;2022-10-16T15:21:49;17.60;4.70
51619;DHT22;38518;53.164;5.430;2022-10-16T15:24:15;17.50;10.00
51619;DHT22;38518;53.164;5.430;2022-10-16T15:26:41;17.30;17.90
51619;DHT22;38518;53.164;5.430;2022-10-16T15:29:07;17.20;22.60
51619;DHT22;38518;53.164;5.430;2022-10-16T15:31:33;17.20;30.00
51619;DHT22;38518;53.164;5.430;2022-10-16T15:33:59;17.10;40.20
51619;DHT22;38518;53.164;5.430;2022-10-16T15:36:33;17.00;40.00
51619;DHT22;38518;53.164;5.430;2022-10-16T15:39:12;16.90;47.90
51619;DHT22;38518;53.164;5.430;2022-10-16T15:41:38;16.80;57.10
51619;DHT22;38518;53.164;5.430;2022-10-16T15:44:04;16.70;63.20
51619;DHT22;38518;53.164;5.430;2022-10-16T15:46:29;16.60;61.40
51619;DHT22;38518;53.164;5.430;2022-10-16T15:48:58;16.50;66.60
51619;DHT22;38518;53.164;5.430;2022-10-16T15:51:24;16.40;69.10
51619;DHT22;38518;53.164;5.430;2022-10-16T15:53:52;16.30;75.70
51619;DHT22;38518;53.164;5.430;2022-10-16T15:56:19;16.20;80.00
51619;DHT22;38518;53.164;5.430;2022-10-16T15:58:45;16.20;78.30
51619;DHT22;38518;53.164;5.430;2022-10-16T16:01:11;16.10;83.00
51619;DHT22;38518;53.164;5.430;2022-10-16T16:03:37;16.00;90.20
51619;DHT22;38518;53.164;5.430;2022-10-16T16:06:08;15.90;92.90
51619;DHT22;38518;53.164;5.430;2022-10-16T16:08:34;15.80;95.20
51619;DHT22;38518;53.164;5.430;2022-10-16T16:11:08;15.70;98.50
51619;DHT22;38518;53.164;5.430;2022-10-16T16:13:35;15.50;99.90
51619;DHT22;38518;53.164;5.430;2022-10-16T16:16:14;15.50;99.90
51619;DHT22;38518;53.164;5.430;2022-10-16T16:18:41;15.40;99.90
51619;DHT22;38518;53.164;5.430;2022-10-16T16:21:08;15.40;99.90
51619;DHT22;38518;53.164;5.430;2022-10-16T16:23:35;15.30;99.90
51619;DHT22;38518;53.164;5.430;2022-10-16T16:26:11;15.30;99.90
51619;DHT22;38518;53.164;5.430;2022-10-16T16:28:38;15.20;99.90
51619;DHT22;38518;53.164;5.430;2022-10-16T16:31:04;15.20;99.90
51619;DHT22;38518;53.164;5.430;2022-10-16T16:33:30;15.00;99.90
51619;DHT22;38518;53.164;5.430;2022-10-16T16:36:02;15.00;99.90
51619;DHT22;38518;53.164;5.430;2022-10-16T16:38:28;14.80;99.90
51619;DHT22;38518;53.164;5.430;2022-10-16T16:40:54;14.80;99.90
51619;DHT22;38518;53.164;5.430;2022-10-16T16:43:27;14.60;99.90
51619;DHT22;38518;53.164;5.430;2022-10-16T16:45:54;14.50;99.90
51619;DHT22;38518;53.164;5.430;2022-10-16T16:48:21;14.40;99.90
51619;DHT22;38518;53.164;5.430;2022-10-16T16:50:47;14.30;99.90
51619;DHT22;38518;53.164;5.430;2022-10-16T16:53:12;14.30;99.90
51619;DHT22;38518;53.164;5.430;2022-10-16T16:55:38;14.20;99.90
51619;DHT22;38518;53.164;5.430;2022-10-16T16:58:04;14.10;99.90
51619;DHT22;38518;53.164;5.430;2022-10-16T17:00:30;14.10;99.90
51619;DHT22;38518;53.164;5.430;2022-10-16T17:02:56;14.00;99.90
51619;DHT22;38518;53.164;5.430;2022-10-16T17:05:22;14.00;99.90
51619;DHT22;38518;53.164;5.430;2022-10-16T17:07:48;14.00;99.90
51619;DHT22;38518;53.164;5.430;2022-10-16T17:10:14;14.00;99.90
51619;DHT22;38518;53.164;5.430;2022-10-16T17:12:40;14.00;99.90
51619;DHT22;38518;53.164;5.430;2022-10-16T17:15:06;13.90;99.90
51619;DHT22;38518;53.164;5.430;2022-10-16T17:17:32;13.90;99.90
51619;DHT22;38518;53.164;5.430;2022-10-16T17:19:58;13.80;99.90
51619;DHT22;38518;53.164;5.430;2022-10-16T17:22:24;13.70;99.90
51619;DHT22;38518;53.164;5.430;2022-10-16T17:24:50;13.60;99.90
51619;DHT22;38518;53.164;5.430;2022-10-16T17:27:17;13.20;99.90
51619;DHT22;38518;53.164;5.430;2022-10-16T17:29:44;13.50;99.90
51619;DHT22;38518;53.164;5.430;2022-10-16T17:32:09;13.40;99.90
51619;DHT22;38518;53.164;5.430;2022-10-16T17:34:36;13.40;99.90
51619;DHT22;38518;53.164;5.430;2022-10-16T17:37:02;13.30;99.90
51619;DHT22;38518;53.164;5.430;2022-10-16T17:39:28;13.30;99.90
51619;DHT22;38518;53.164;5.430;2022-10-16T17:41:54;13.30;99.90
51619;DHT22;38518;53.164;5.430;2022-10-16T17:44:20;13.20;99.90
51619;DHT22;38518;53.164;5.430;2022-10-16T17:46:47;13.20;99.90
51619;DHT22;38518;53.164;5.430;2022-10-16T17:49:13;13.10;99.90